createdAt,value
2018-12-22T00:02:09.981Z,2.90
2018-12-22T00:04:38.498Z,2.70
2018-12-22T00:07:07.040Z,2.87
2018-12-22T00:09:35.520Z,2.67
2018-12-22T00:12:04.086Z,3.60
2018-12-22T00:14:32.600Z,2.70
2018-12-22T00:17:01.103Z,2.90
2018-12-22T00:19:29.623Z,2.50
2018-12-22T00:21:59.289Z,2.57
2018-12-22T00:24:27.972Z,3.20
2018-12-22T00:26:56.581Z,3.00
2018-12-22T00:29:26.319Z,3.33
2018-12-22T00:31:55.078Z,3.17
2018-12-22T00:34:24.070Z,2.90
2018-12-22T00:36:52.762Z,3.23
2018-12-22T00:39:21.279Z,2.90
2018-12-22T00:41:49.897Z,3.20
2018-12-22T00:47:18.657Z,3.10
2018-12-22T00:49:47.763Z,3.43
2018-12-22T00:52:16.406Z,3.27
2018-12-22T00:54:44.969Z,2.83
2018-12-22T00:57:13.558Z,2.90
2018-12-22T00:59:42.151Z,2.60
2018-12-22T01:02:16.269Z,3.17
2018-12-22T01:04:44.802Z,2.80
2018-12-22T01:07:13.396Z,2.37
2018-12-22T01:09:41.937Z,2.53
2018-12-22T01:12:10.911Z,2.97
2018-12-22T01:14:40.025Z,2.93
2018-12-22T01:17:08.611Z,2.90
2018-12-22T01:19:37.154Z,3.07
2018-12-22T01:22:05.737Z,2.73
2018-12-22T01:24:34.318Z,2.80
2018-12-22T01:27:02.874Z,2.90
2018-12-22T01:29:31.639Z,2.70
2018-12-22T01:32:00.207Z,2.40
2018-12-22T01:34:30.362Z,2.57
2018-12-22T01:36:59.052Z,2.53
2018-12-22T01:39:27.516Z,2.37
2018-12-22T01:41:56.044Z,2.67
2018-12-22T01:44:24.778Z,2.60
2018-12-22T01:46:53.294Z,2.60
2018-12-22T01:49:21.882Z,2.80
2018-12-22T01:51:50.321Z,2.33
2018-12-22T01:54:20.926Z,2.63
2018-12-22T01:56:49.514Z,2.70
2018-12-22T01:59:18.586Z,2.37
2018-12-22T02:01:47.194Z,2.60
2018-12-22T02:04:16.388Z,2.20
2018-12-22T02:06:45.015Z,2.10
2018-12-22T02:09:13.480Z,2.17
2018-12-22T02:11:41.960Z,2.30
2018-12-22T02:14:10.460Z,1.93
2018-12-22T02:16:39.597Z,1.63
2018-12-22T02:19:08.182Z,2.20
2018-12-22T02:21:37.671Z,2.00
2018-12-22T02:24:06.168Z,2.33
2018-12-22T02:26:34.800Z,1.97
2018-12-22T02:29:03.286Z,2.43
2018-12-22T02:31:31.759Z,2.37
2018-12-22T02:34:00.268Z,2.37
2018-12-22T02:36:28.894Z,1.87
2018-12-22T02:38:58.117Z,2.23
2018-12-22T02:41:27.243Z,2.00
2018-12-22T02:43:55.724Z,1.90
2018-12-22T02:46:24.208Z,1.67
2018-12-22T02:48:52.736Z,1.47
2018-12-22T02:51:21.217Z,1.00
2018-12-22T02:53:50.122Z,1.13
2018-12-22T02:56:19.360Z,1.20
2018-12-22T02:58:47.794Z,1.00
2018-12-22T03:01:16.305Z,1.00
2018-12-22T03:03:44.740Z,1.00
2018-12-22T03:06:13.199Z,1.00
2018-12-22T03:08:41.793Z,1.00
2018-12-22T03:11:10.379Z,0.90
2018-12-22T03:13:39.147Z,0.90
2018-12-22T03:16:07.609Z,1.00
2018-12-22T03:18:36.176Z,0.87
2018-12-22T03:21:04.639Z,1.10
2018-12-22T03:23:33.163Z,1.10
2018-12-22T03:26:02.173Z,0.80
2018-12-22T03:28:30.686Z,1.10
2018-12-22T03:30:59.194Z,1.00
2018-12-22T03:33:27.946Z,1.10
2018-12-22T03:35:56.817Z,1.07
2018-12-22T03:38:25.308Z,1.00
2018-12-22T03:40:54.215Z,1.00
2018-12-22T03:43:22.804Z,1.10
2018-12-22T03:45:51.274Z,1.20
2018-12-22T03:48:21.457Z,0.90
2018-12-22T03:50:50.085Z,1.00
2018-12-22T03:53:18.653Z,1.10
2018-12-22T03:55:47.194Z,1.00
2018-12-22T03:58:15.665Z,1.10
2018-12-22T04:00:44.743Z,1.23
2018-12-22T04:03:13.319Z,1.33
2018-12-22T04:05:41.855Z,1.10
2018-12-22T04:08:10.386Z,1.23
2018-12-22T04:10:39.875Z,1.40
2018-12-22T04:13:09.242Z,1.60
2018-12-22T04:15:37.823Z,1.47
2018-12-22T04:18:06.357Z,1.13
2018-12-22T04:20:35.370Z,1.20
2018-12-22T04:23:03.996Z,0.90
2018-12-22T04:25:32.546Z,1.30
2018-12-22T04:28:02.319Z,1.63
2018-12-22T04:30:30.745Z,1.10
2018-12-22T04:33:00.088Z,1.30
2018-12-22T04:35:28.710Z,1.00
2018-12-22T04:37:57.317Z,1.10
2018-12-22T04:40:25.879Z,1.17
2018-12-22T04:42:54.369Z,1.20
2018-12-22T04:45:22.843Z,1.20
2018-12-22T04:47:51.916Z,1.20
2018-12-22T04:50:20.389Z,1.20
2018-12-22T04:52:49.518Z,1.10
2018-12-22T04:55:18.029Z,1.00
2018-12-22T04:57:47.259Z,0.90
2018-12-22T05:00:15.785Z,1.10
2018-12-22T05:02:44.267Z,1.10
2018-12-22T05:05:12.723Z,1.67
2018-12-22T05:07:41.333Z,1.00
2018-12-22T05:10:09.879Z,1.03
2018-12-22T05:12:38.686Z,0.90
2018-12-22T05:15:08.664Z,1.10
2018-12-22T05:17:37.836Z,0.90
2018-12-22T05:20:07.303Z,1.20
2018-12-22T05:22:35.758Z,0.70
2018-12-22T05:25:04.258Z,0.53
2018-12-22T05:27:32.754Z,0.63
2018-12-22T05:30:01.267Z,0.70
2018-12-22T05:32:29.854Z,0.70
2018-12-22T05:34:59.163Z,0.63
2018-12-22T05:37:28.532Z,0.73
2018-12-22T05:39:57.917Z,0.73
2018-12-22T05:42:26.670Z,0.77
2018-12-22T05:44:57.898Z,0.90
2018-12-22T05:47:27.475Z,0.70
2018-12-22T05:49:56.066Z,0.60
2018-12-22T05:52:24.562Z,0.70
2018-12-22T05:54:53.145Z,0.80
2018-12-22T05:57:22.311Z,0.80
2018-12-22T05:59:50.849Z,0.70
2018-12-22T06:02:19.726Z,0.80
2018-12-22T06:04:51.745Z,0.80
2018-12-22T06:07:20.339Z,0.80
2018-12-22T06:09:48.923Z,0.70
2018-12-22T06:12:19.176Z,0.97
2018-12-22T06:14:47.661Z,0.80
2018-12-22T06:17:16.937Z,0.80
2018-12-22T06:19:49.779Z,0.90
2018-12-22T06:22:19.043Z,0.73
2018-12-22T06:24:49.022Z,0.90
2018-12-22T06:27:20.612Z,0.73
2018-12-22T06:29:50.165Z,0.80
2018-12-22T06:32:19.682Z,0.87
2018-12-22T06:34:51.624Z,0.77
2018-12-22T06:37:22.212Z,0.83
2018-12-22T06:39:50.734Z,0.87
2018-12-22T06:42:21.006Z,1.30
2018-12-22T06:44:50.748Z,1.10
2018-12-22T06:47:20.649Z,0.93
2018-12-22T06:49:50.856Z,1.13
2018-12-22T06:52:20.848Z,1.03
2018-12-22T06:54:58.446Z,1.10
2018-12-22T06:57:26.917Z,1.30
2018-12-22T06:59:55.517Z,1.20
2018-12-22T07:02:25.645Z,1.30
2018-12-22T07:04:55.225Z,2.77
2018-12-22T07:07:24.344Z,1.43
2018-12-22T07:09:54.878Z,1.50
2018-12-22T07:12:23.413Z,1.57
2018-12-22T07:14:55.126Z,1.83
2018-12-22T07:17:24.283Z,1.43
2018-12-22T07:19:53.058Z,1.27
2018-12-22T07:22:24.342Z,1.43
2018-12-22T07:24:54.562Z,1.13
2018-12-22T07:27:25.371Z,1.70
2018-12-22T07:29:55.265Z,2.23
2018-12-22T07:32:25.655Z,1.37
2018-12-22T07:34:54.152Z,1.20
2018-12-22T07:37:24.038Z,1.50
2018-12-22T07:39:53.558Z,1.10
2018-12-22T07:42:23.999Z,1.10
2018-12-22T07:44:56.513Z,1.50
2018-12-22T07:47:25.519Z,1.30
2018-12-22T07:49:55.448Z,1.30
2018-12-22T07:52:24.390Z,1.17
2018-12-22T07:54:59.778Z,1.00
2018-12-22T07:57:29.352Z,1.50
2018-12-22T07:59:58.174Z,1.40
2018-12-22T08:02:28.057Z,1.37
2018-12-22T08:04:57.883Z,1.27
2018-12-22T08:07:27.215Z,1.20
2018-12-22T08:09:57.544Z,1.10
2018-12-22T08:12:31.034Z,1.40
2018-12-22T08:15:00.538Z,1.83
2018-12-22T08:17:29.172Z,2.00
2018-12-22T08:19:57.810Z,1.50
2018-12-22T08:22:26.974Z,1.63
2018-12-22T08:25:06.113Z,1.63
2018-12-22T08:27:34.889Z,1.43
2018-12-22T08:30:04.008Z,2.00
2018-12-22T08:32:33.417Z,1.30
2018-12-22T08:35:01.935Z,1.47
2018-12-22T08:37:30.585Z,1.20
2018-12-22T08:39:59.286Z,1.50
2018-12-22T08:42:27.817Z,1.70
2018-12-22T08:44:56.473Z,2.53
2018-12-22T08:47:25.004Z,1.43
2018-12-22T08:49:53.456Z,1.60
2018-12-22T08:52:22.119Z,1.90
2018-12-22T08:54:50.778Z,1.67
2018-12-22T08:57:19.834Z,1.40
2018-12-22T08:59:48.285Z,1.53
2018-12-22T09:02:16.882Z,1.20
2018-12-22T09:04:45.942Z,1.40
2018-12-22T09:07:14.541Z,1.60
2018-12-22T09:09:43.106Z,1.70
2018-12-22T09:12:11.554Z,1.60
2018-12-22T09:14:40.157Z,4.47
2018-12-22T09:17:08.809Z,5.03
2018-12-22T09:19:37.843Z,2.63
2018-12-22T09:22:07.223Z,1.70
2018-12-22T09:24:36.231Z,3.07
2018-12-22T09:27:04.775Z,1.87
2018-12-22T09:29:33.506Z,1.97
2018-12-22T09:32:02.558Z,1.97
2018-12-22T09:34:31.663Z,2.50
2018-12-22T09:37:00.224Z,1.97
2018-12-22T09:39:28.780Z,2.00
2018-12-22T09:41:57.480Z,2.47
2018-12-22T09:44:25.962Z,2.27
2018-12-22T09:46:54.477Z,1.93
2018-12-22T09:49:23.453Z,2.27
2018-12-22T09:51:51.856Z,1.40
2018-12-22T09:54:21.766Z,1.83
2018-12-22T09:56:50.345Z,1.70
2018-12-22T09:59:20.391Z,1.43
2018-12-22T10:01:48.966Z,1.50
2018-12-22T10:04:20.182Z,1.33
2018-12-22T10:06:49.622Z,1.43
2018-12-22T10:09:18.441Z,1.40
2018-12-22T10:11:46.909Z,1.70
2018-12-22T10:14:15.469Z,1.20
2018-12-22T10:16:43.964Z,1.13
2018-12-22T10:19:12.503Z,1.60
2018-12-22T10:21:41.043Z,1.30
2018-12-22T10:24:10.224Z,8.07
2018-12-22T10:26:40.378Z,2.73
2018-12-22T10:29:08.909Z,1.40
2018-12-22T10:31:38.342Z,1.33
2018-12-22T10:34:06.866Z,1.97
2018-12-22T10:36:35.469Z,1.80
2018-12-22T10:39:05.458Z,1.80
2018-12-22T10:41:33.934Z,1.47
2018-12-22T10:44:02.461Z,2.23
2018-12-22T10:46:30.973Z,2.50
2018-12-22T10:48:59.801Z,2.03
2018-12-22T10:51:28.336Z,10.43
2018-12-22T10:54:00.270Z,7.30
2018-12-22T10:56:28.819Z,2.87
2018-12-22T10:58:57.797Z,2.43
2018-12-22T11:01:26.954Z,3.60
2018-12-22T11:03:55.566Z,2.73
2018-12-22T11:06:24.877Z,3.07
2018-12-22T11:08:53.315Z,3.80
2018-12-22T11:11:21.822Z,2.10
2018-12-22T11:13:50.842Z,3.30
2018-12-22T11:16:19.424Z,3.33
2018-12-22T11:18:47.889Z,2.47
2018-12-22T11:21:16.624Z,2.20
2018-12-22T11:23:45.188Z,2.97
2018-12-22T11:26:13.807Z,3.40
2018-12-22T11:28:42.434Z,1.53
2018-12-22T11:31:10.938Z,2.10
2018-12-22T11:33:40.193Z,2.20
2018-12-22T11:36:08.797Z,1.77
2018-12-22T11:38:37.344Z,1.40
2018-12-22T11:41:05.935Z,2.17
2018-12-22T11:43:34.483Z,2.37
2018-12-22T11:46:03.080Z,2.20
2018-12-22T11:48:40.126Z,2.10
2018-12-22T11:51:09.170Z,2.87
2018-12-22T11:53:40.331Z,1.60
2018-12-22T11:56:08.878Z,2.00
2018-12-22T11:58:39.159Z,2.17
2018-12-22T12:01:07.804Z,2.30
2018-12-22T12:03:36.635Z,2.73
2018-12-22T12:06:05.208Z,3.10
2018-12-22T12:08:33.685Z,3.70
2018-12-22T12:11:03.088Z,2.40
2018-12-22T12:13:31.762Z,2.40
2018-12-22T12:17:10.028Z,2.13
2018-12-22T12:19:40.827Z,1.83
2018-12-22T12:22:09.452Z,2.03
2018-12-22T12:24:39.584Z,2.03
2018-12-22T12:27:08.664Z,2.10
2018-12-22T12:29:37.387Z,1.60
2018-12-22T12:32:05.975Z,2.87
2018-12-22T12:34:39.526Z,2.60
2018-12-22T12:37:08.126Z,1.87
2018-12-22T12:39:37.126Z,1.83
2018-12-22T12:42:05.680Z,2.33
2018-12-22T12:44:34.295Z,1.57
2018-12-22T12:47:03.113Z,1.83
2018-12-22T12:49:31.890Z,3.57
2018-12-22T12:52:01.155Z,2.00
2018-12-22T12:54:30.311Z,2.40
2018-12-22T12:56:59.946Z,2.10
2018-12-22T12:59:30.721Z,2.40
2018-12-22T13:02:01.429Z,2.30
2018-12-22T13:04:30.494Z,2.47
2018-12-22T13:06:59.319Z,2.30
2018-12-22T13:09:27.894Z,2.60
2018-12-22T13:11:59.198Z,3.40
2018-12-22T13:14:28.427Z,1.40
2018-12-22T13:16:57.258Z,2.87
2018-12-22T13:19:26.117Z,2.43
2018-12-22T13:21:55.369Z,2.90
2018-12-22T13:24:24.013Z,2.30
2018-12-22T13:26:53.367Z,3.30
2018-12-22T13:29:22.370Z,5.23
2018-12-22T13:31:52.068Z,3.07
2018-12-22T13:34:22.125Z,4.40
2018-12-22T13:36:50.827Z,4.67
2018-12-22T13:39:23.573Z,4.30
2018-12-22T13:41:54.809Z,1.73
2018-12-22T13:44:23.484Z,4.20
2018-12-22T13:46:52.339Z,3.27
2018-12-22T13:49:21.558Z,2.33
2018-12-22T13:51:50.547Z,1.63
2018-12-22T13:54:22.249Z,2.00
2018-12-22T13:56:50.910Z,1.80
2018-12-22T13:59:20.754Z,2.00
2018-12-22T14:01:55.874Z,2.73
2018-12-22T14:04:24.671Z,2.77
2018-12-22T14:06:53.230Z,2.60
2018-12-22T14:09:21.744Z,4.50
2018-12-22T14:11:51.268Z,3.80
2018-12-22T14:14:23.484Z,4.60
2018-12-22T14:17:31.649Z,2.20
2018-12-22T14:20:05.452Z,3.10
2018-12-22T14:22:35.199Z,3.00
2018-12-22T14:25:08.377Z,3.07
2018-12-22T14:27:39.532Z,4.00
2018-12-22T14:30:11.287Z,2.87
2018-12-22T14:32:40.093Z,4.23
2018-12-22T14:35:12.186Z,4.30
2018-12-22T14:37:40.742Z,3.77
2018-12-22T14:40:11.149Z,4.93
2018-12-22T14:42:40.259Z,2.40
2018-12-22T14:45:10.613Z,2.83
2018-12-22T14:47:39.330Z,7.30
2018-12-22T14:50:09.913Z,9.50
2018-12-22T14:52:38.589Z,12.60
2018-12-22T14:55:08.064Z,8.50
2018-12-22T14:57:42.939Z,8.30
2018-12-22T15:00:12.144Z,6.80
2018-12-22T15:02:40.739Z,9.47
2018-12-22T15:05:09.275Z,8.30
2018-12-22T15:07:37.999Z,10.07
2018-12-22T15:10:07.202Z,21.27
2018-12-22T15:12:36.058Z,9.33
2018-12-22T15:15:04.854Z,3.90
2018-12-22T15:17:33.409Z,3.13
2018-12-22T15:20:01.860Z,5.13
2018-12-22T15:22:30.457Z,6.30
2018-12-22T15:24:59.700Z,5.30
2018-12-22T15:27:28.271Z,3.70
2018-12-22T15:29:56.927Z,10.67
2018-12-22T15:32:25.478Z,9.70
2018-12-22T15:34:53.909Z,8.50
2018-12-22T15:37:22.552Z,8.10
2018-12-22T15:39:51.049Z,10.33
2018-12-22T15:42:20.479Z,14.10
2018-12-22T15:44:49.585Z,3.03
2018-12-22T15:47:20.737Z,1.90
2018-12-22T15:49:49.208Z,1.60
2018-12-22T15:52:19.839Z,2.40
2018-12-22T15:54:48.278Z,2.37
2018-12-22T15:57:16.746Z,2.10
2018-12-22T15:59:45.564Z,2.00
2018-12-22T16:02:14.044Z,19.77
2018-12-22T16:04:42.714Z,5.30
2018-12-22T16:07:11.595Z,2.33
2018-12-22T16:09:40.094Z,1.83
2018-12-22T16:12:08.566Z,1.50
2018-12-22T16:14:37.110Z,1.93
2018-12-22T16:17:05.618Z,1.63
2018-12-22T16:19:35.396Z,1.77
2018-12-22T16:22:04.556Z,2.37
2018-12-22T16:24:33.180Z,2.37
2018-12-22T16:27:01.674Z,2.40
2018-12-22T16:29:34.916Z,2.20
2018-12-22T16:32:03.443Z,1.80
2018-12-22T16:34:34.730Z,1.90
2018-12-22T16:37:03.478Z,5.97
2018-12-22T16:39:32.073Z,2.70
2018-12-22T16:42:01.201Z,1.70
2018-12-22T16:44:29.785Z,1.97
2018-12-22T16:46:59.163Z,2.00
2018-12-22T16:49:31.388Z,1.30
2018-12-22T16:52:00.294Z,1.50
2018-12-22T16:54:29.966Z,5.27
2018-12-22T16:56:58.888Z,6.43
2018-12-22T16:59:29.191Z,3.87
2018-12-22T17:02:03.161Z,3.30
2018-12-22T17:04:31.971Z,3.33
2018-12-22T17:07:01.469Z,4.83
2018-12-22T17:09:30.976Z,1.87
2018-12-22T17:12:00.379Z,1.97
2018-12-22T17:14:28.889Z,1.50
2018-12-22T17:16:58.165Z,1.77
2018-12-22T17:19:30.922Z,1.50
2018-12-22T17:22:09.112Z,1.67
2018-12-22T17:24:46.826Z,3.97
2018-12-22T17:27:16.278Z,2.00
2018-12-22T17:29:45.614Z,3.00
2018-12-22T17:32:14.183Z,1.17
2018-12-22T17:34:42.885Z,1.27
2018-12-22T17:37:12.128Z,2.20
2018-12-22T17:39:41.226Z,1.93
2018-12-22T17:42:12.272Z,2.40
2018-12-22T17:44:40.968Z,1.30
2018-12-22T17:47:10.113Z,1.40
2018-12-22T17:49:39.607Z,2.33
2018-12-22T17:52:09.034Z,1.57
2018-12-22T17:54:38.520Z,4.67
2018-12-22T17:57:07.607Z,1.30
2018-12-22T17:59:37.354Z,1.17
2018-12-22T18:02:06.158Z,1.00
2018-12-22T18:04:41.274Z,1.27
2018-12-22T18:07:13.972Z,1.50
2018-12-22T18:09:45.648Z,1.10
2018-12-22T18:12:17.488Z,1.47
2018-12-22T18:14:49.586Z,1.70
2018-12-22T18:17:23.336Z,2.03
2018-12-22T18:19:52.615Z,1.20
2018-12-22T18:22:21.641Z,1.10
2018-12-22T18:24:51.281Z,1.33
2018-12-22T18:27:20.820Z,1.37
2018-12-22T18:29:49.585Z,1.27
2018-12-22T18:32:19.918Z,1.00
2018-12-22T18:34:55.940Z,1.40
2018-12-22T18:37:46.140Z,1.10
2018-12-22T18:40:20.900Z,8.63
2018-12-22T18:42:54.655Z,1.30
2018-12-22T18:45:23.247Z,1.37
2018-12-22T18:50:33.494Z,1.40
2018-12-22T18:53:02.164Z,1.60
2018-12-22T18:55:34.229Z,1.90
2018-12-22T18:58:04.542Z,1.80
2018-12-22T19:00:33.370Z,1.37
2018-12-22T19:03:01.926Z,1.90
2018-12-22T19:05:30.509Z,6.60
2018-12-22T19:08:05.044Z,8.27
2018-12-22T19:10:43.562Z,1.80
2018-12-22T19:13:12.687Z,1.80
2018-12-22T19:15:42.164Z,1.47
2018-12-22T19:18:10.908Z,1.60
2018-12-22T19:20:49.529Z,1.63
2018-12-22T19:23:20.581Z,2.17
2018-12-22T19:25:50.312Z,1.93
2018-12-22T19:28:20.147Z,2.07
2018-12-22T19:30:51.323Z,1.50
2018-12-22T19:33:20.913Z,1.80
2018-12-22T19:35:50.410Z,1.60
2018-12-22T19:38:20.938Z,2.17
2018-12-22T19:40:54.083Z,1.73
2018-12-22T19:43:23.088Z,1.60
2018-12-22T19:45:52.565Z,2.20
2018-12-22T19:48:23.475Z,1.40
2018-12-22T19:50:53.232Z,1.80
2018-12-22T19:53:21.917Z,2.37
2018-12-22T19:55:50.856Z,1.50
2018-12-22T19:58:20.326Z,1.23
2018-12-22T20:00:49.172Z,1.23
2018-12-22T20:03:19.738Z,1.50
2018-12-22T20:05:49.758Z,6.20
2018-12-22T20:08:19.298Z,3.20
2018-12-22T20:10:49.228Z,1.60
2018-12-22T20:13:18.370Z,1.20
2018-12-22T20:15:47.617Z,1.30
2018-12-22T20:18:16.206Z,1.57
2018-12-22T20:20:44.955Z,1.50
2018-12-22T20:23:13.614Z,1.37
2018-12-22T20:25:42.969Z,1.70
2018-12-22T20:28:12.233Z,1.30
2018-12-22T20:30:41.087Z,1.37
2018-12-22T20:33:09.578Z,2.37
2018-12-22T20:35:39.819Z,1.87
2018-12-22T20:38:09.209Z,2.93
2018-12-22T20:40:37.766Z,1.50
2018-12-22T20:43:06.346Z,1.70
2018-12-22T20:45:35.155Z,1.50
2018-12-22T20:48:03.598Z,1.40
2018-12-22T20:50:32.323Z,1.77
2018-12-22T20:53:01.544Z,5.83
2018-12-22T20:55:30.050Z,4.37
2018-12-22T20:57:58.857Z,2.00
2018-12-22T21:00:27.354Z,1.90
2018-12-22T21:02:55.785Z,1.50
2018-12-22T21:05:24.347Z,1.97
2018-12-22T21:07:52.795Z,2.80
2018-12-22T21:10:22.343Z,2.20
2018-12-22T21:12:50.808Z,1.97
2018-12-22T21:15:22.193Z,2.20
2018-12-22T21:17:50.701Z,1.90
2018-12-22T21:20:19.383Z,2.03
2018-12-22T21:22:47.837Z,1.83
2018-12-22T21:25:16.290Z,2.00
2018-12-22T21:27:44.806Z,3.80
2018-12-22T21:30:13.317Z,3.60
2018-12-22T21:32:41.855Z,4.77
2018-12-22T21:35:15.451Z,3.43
2018-12-22T21:37:43.886Z,5.20
2018-12-22T21:40:12.374Z,3.83
2018-12-22T21:42:41.486Z,4.63
2018-12-22T21:45:09.963Z,5.13
2018-12-22T21:47:38.560Z,8.77
2018-12-22T21:50:07.159Z,4.00
2018-12-22T21:52:35.635Z,4.23
2018-12-22T21:55:04.125Z,3.60
2018-12-22T21:57:33.423Z,2.93
2018-12-22T22:00:01.911Z,3.00
2018-12-22T22:02:30.410Z,4.30
2018-12-22T22:05:01.472Z,4.80
2018-12-22T22:07:29.947Z,4.10
2018-12-22T22:09:58.577Z,3.87
2018-12-22T22:12:27.082Z,5.20
2018-12-22T22:14:56.176Z,4.63
2018-12-22T22:17:24.755Z,3.53
2018-12-22T22:19:53.231Z,2.97
2018-12-22T22:22:21.841Z,3.30
2018-12-22T22:24:50.313Z,2.90
2018-12-22T22:27:19.489Z,2.77
2018-12-22T22:29:47.988Z,3.30
2018-12-22T22:32:16.601Z,3.00
2018-12-22T22:34:45.633Z,3.40
2018-12-22T22:37:14.541Z,3.27
2018-12-22T22:39:44.120Z,3.33
2018-12-22T22:42:12.672Z,3.27
2018-12-22T22:44:41.820Z,3.97
2018-12-22T22:47:10.393Z,3.60
2018-12-22T22:49:39.015Z,4.33
2018-12-22T22:52:07.476Z,4.70
2018-12-22T22:54:35.897Z,4.67
2018-12-22T22:57:04.713Z,4.40
2018-12-22T22:59:33.519Z,5.00
2018-12-22T23:02:02.762Z,4.07
2018-12-22T23:04:31.241Z,4.23
2018-12-22T23:07:00.086Z,3.53
2018-12-22T23:09:29.047Z,3.43
2018-12-22T23:11:58.182Z,3.57
2018-12-22T23:14:26.969Z,3.07
2018-12-22T23:16:55.672Z,3.30
2018-12-22T23:19:24.177Z,3.00
2018-12-22T23:21:52.909Z,3.47
2018-12-22T23:24:22.032Z,3.33
2018-12-22T23:26:50.797Z,2.93
2018-12-22T23:32:09.815Z,2.30
2018-12-22T23:34:39.219Z,2.60
2018-12-22T23:37:37.606Z,2.57
2018-12-22T23:40:06.373Z,2.30
2018-12-22T23:42:35.000Z,2.97
2018-12-22T23:45:03.618Z,2.03
2018-12-22T23:47:32.894Z,2.10
2018-12-22T23:50:01.397Z,2.73
2018-12-22T23:52:29.917Z,2.90
2018-12-22T23:54:58.494Z,2.10
2018-12-22T23:57:27.558Z,2.30
2018-12-22T23:59:56.035Z,2.87
